createdAt,value
2023-01-31T00:01:26.348Z,2.07
2023-01-31T00:03:56.337Z,2.09
2023-01-31T00:06:27.123Z,2.05
2023-01-31T00:08:57.249Z,1.99
2023-01-31T00:11:31.046Z,2.00
2023-01-31T00:14:01.219Z,1.93
2023-01-31T00:16:30.692Z,1.88
2023-01-31T00:19:00.510Z,1.87
2023-01-31T00:21:32.310Z,1.84
2023-01-31T00:24:02.043Z,1.79
2023-01-31T00:26:36.200Z,1.84
2023-01-31T00:29:07.243Z,1.86
2023-01-31T00:31:37.925Z,1.85
2023-01-31T00:34:08.230Z,1.86
2023-01-31T00:36:38.692Z,1.91
2023-01-31T00:39:10.443Z,1.97
2023-01-31T00:41:42.537Z,1.93
2023-01-31T00:44:11.918Z,1.99
2023-01-31T00:46:41.412Z,1.93
2023-01-31T00:49:11.161Z,1.92
2023-01-31T00:51:40.583Z,1.89
2023-01-31T00:54:10.159Z,1.83
2023-01-31T00:56:42.855Z,1.80
2023-01-31T00:59:12.219Z,1.74
2023-01-31T01:01:41.929Z,1.72
2023-01-31T01:04:11.366Z,1.70
2023-01-31T01:06:41.779Z,1.66
2023-01-31T01:09:11.202Z,1.63
2023-01-31T01:11:43.237Z,1.55
2023-01-31T01:14:12.791Z,1.55
2023-01-31T01:16:42.388Z,1.53
2023-01-31T01:19:15.434Z,1.55
2023-01-31T01:21:44.846Z,1.54
2023-01-31T01:24:17.225Z,1.55
2023-01-31T01:26:49.477Z,1.51
2023-01-31T01:29:18.879Z,1.55
2023-01-31T01:31:48.512Z,1.51
2023-01-31T01:34:20.099Z,1.41
2023-01-31T01:36:49.513Z,1.33
2023-01-31T01:39:19.268Z,1.30
2023-01-31T01:41:51.854Z,1.28
2023-01-31T01:44:46.443Z,1.27
2023-01-31T01:47:19.817Z,1.21
2023-01-31T01:49:52.593Z,1.20
2023-01-31T01:52:22.313Z,1.24
2023-01-31T01:54:55.720Z,1.23
2023-01-31T01:57:32.540Z,1.19
2023-01-31T02:00:07.681Z,1.18
2023-01-31T02:02:37.217Z,1.19
2023-01-31T02:05:07.230Z,1.21
2023-01-31T02:07:36.711Z,1.28
2023-01-31T02:10:09.410Z,1.25
2023-01-31T02:12:41.956Z,1.27
2023-01-31T02:15:12.810Z,1.33
2023-01-31T02:17:42.261Z,1.35
2023-01-31T02:20:25.567Z,1.45
2023-01-31T02:23:06.148Z,1.48
2023-01-31T02:25:56.303Z,1.52
2023-01-31T02:29:01.212Z,1.55
2023-01-31T02:32:00.746Z,1.59
2023-01-31T02:34:37.784Z,1.61
2023-01-31T02:37:16.019Z,1.62
2023-01-31T02:39:54.136Z,1.68
2023-01-31T02:42:27.666Z,1.71
2023-01-31T02:44:59.347Z,1.73
2023-01-31T02:47:47.920Z,1.72
2023-01-31T02:50:24.325Z,1.69
2023-01-31T02:52:56.994Z,1.71
2023-01-31T02:55:42.111Z,1.70
2023-01-31T02:58:12.951Z,1.74
2023-01-31T03:00:45.547Z,1.78
2023-01-31T03:03:21.633Z,1.69
2023-01-31T03:06:36.972Z,1.69
2023-01-31T03:09:10.394Z,1.66
2023-01-31T03:11:54.575Z,1.61
2023-01-31T03:14:28.037Z,1.59
2023-01-31T03:17:13.654Z,1.60
2023-01-31T03:19:49.537Z,1.63
2023-01-31T03:22:24.377Z,1.59
2023-01-31T03:24:55.002Z,1.63
2023-01-31T03:27:24.880Z,1.64
2023-01-31T03:29:56.353Z,1.65
2023-01-31T03:32:30.585Z,1.73
2023-01-31T03:35:00.367Z,1.74
2023-01-31T03:37:40.340Z,1.74
2023-01-31T03:40:15.219Z,1.72
2023-01-31T03:42:48.731Z,1.69
2023-01-31T03:45:21.720Z,1.71
2023-01-31T03:47:53.121Z,1.66
2023-01-31T03:50:26.203Z,1.69
2023-01-31T03:53:01.118Z,1.67
2023-01-31T03:55:34.233Z,1.65
2023-01-31T03:58:06.617Z,1.63
2023-01-31T04:00:37.734Z,1.63
2023-01-31T04:03:13.827Z,1.61
2023-01-31T04:05:43.596Z,1.63
2023-01-31T04:08:15.678Z,1.58
2023-01-31T04:10:45.413Z,1.58
2023-01-31T04:13:14.861Z,1.59
2023-01-31T04:15:44.725Z,1.60
2023-01-31T04:18:14.163Z,1.62
2023-01-31T04:20:43.641Z,1.58
2023-01-31T04:23:15.674Z,1.59
2023-01-31T04:25:45.120Z,1.58
2023-01-31T04:28:14.494Z,1.57
2023-01-31T04:30:43.941Z,1.60
2023-01-31T04:33:13.363Z,1.58
2023-01-31T04:35:43.239Z,1.62
2023-01-31T04:38:15.442Z,1.55
2023-01-31T04:40:44.896Z,1.57
2023-01-31T04:43:14.370Z,1.57
2023-01-31T04:45:44.870Z,1.57
2023-01-31T04:48:14.338Z,1.64
2023-01-31T04:50:43.784Z,1.64
2023-01-31T04:53:16.001Z,1.65
2023-01-31T04:55:45.458Z,1.65
2023-01-31T04:58:14.867Z,1.68
2023-01-31T05:00:45.056Z,1.67
2023-01-31T05:03:14.553Z,1.67
2023-01-31T05:05:44.033Z,1.69
2023-01-31T05:08:16.313Z,1.72
2023-01-31T05:10:46.077Z,1.75
2023-01-31T05:13:15.542Z,1.75
2023-01-31T05:15:44.988Z,1.79
2023-01-31T05:18:14.423Z,1.81
2023-01-31T05:20:43.917Z,1.81
2023-01-31T05:23:15.912Z,1.82
2023-01-31T05:25:45.589Z,1.83
2023-01-31T05:28:14.971Z,1.86
2023-01-31T05:30:44.413Z,1.89
2023-01-31T05:33:14.356Z,1.85
2023-01-31T05:35:43.859Z,1.87
2023-01-31T05:38:15.900Z,1.93
2023-01-31T05:40:45.338Z,1.90
2023-01-31T05:43:14.883Z,1.91
2023-01-31T05:45:44.847Z,1.96
2023-01-31T05:48:14.323Z,1.93
2023-01-31T05:50:43.767Z,1.97
2023-01-31T05:53:16.008Z,1.97
2023-01-31T05:55:45.671Z,2.00
2023-01-31T05:58:15.072Z,2.00
2023-01-31T06:00:44.597Z,2.01
2023-01-31T06:03:14.203Z,2.01
2023-01-31T06:05:43.683Z,2.00
2023-01-31T06:08:15.687Z,2.01
2023-01-31T06:10:45.095Z,2.05
2023-01-31T06:13:14.535Z,2.02
2023-01-31T06:15:45.870Z,2.02
2023-01-31T06:18:15.562Z,2.07
2023-01-31T06:20:44.987Z,2.08
2023-01-31T06:23:17.014Z,2.10
2023-01-31T06:25:46.482Z,2.09
2023-01-31T06:28:15.903Z,2.10
2023-01-31T06:30:45.470Z,2.10
2023-01-31T06:33:15.507Z,2.17
2023-01-31T06:35:45.279Z,2.15
2023-01-31T06:38:17.286Z,2.21
2023-01-31T06:40:46.729Z,2.21
2023-01-31T06:43:16.229Z,2.24
2023-01-31T06:45:45.895Z,2.23
2023-01-31T06:48:15.986Z,2.33
2023-01-31T06:50:46.569Z,2.30
2023-01-31T06:53:18.544Z,2.42
2023-01-31T06:55:47.963Z,2.36
2023-01-31T06:58:20.656Z,2.33
2023-01-31T07:00:50.329Z,2.37
2023-01-31T07:03:19.763Z,2.37
2023-01-31T07:05:49.401Z,2.32
2023-01-31T07:08:21.546Z,2.31
2023-01-31T07:10:51.044Z,2.32
2023-01-31T07:13:20.451Z,2.32
2023-01-31T07:15:49.941Z,2.34
2023-01-31T07:18:19.670Z,2.38
2023-01-31T07:20:49.248Z,2.36
2023-01-31T07:23:21.289Z,2.31
2023-01-31T07:25:50.817Z,2.31
2023-01-31T07:28:20.239Z,2.33
2023-01-31T07:30:51.580Z,2.31
2023-01-31T07:33:21.677Z,2.29
2023-01-31T07:35:53.797Z,2.32
2023-01-31T07:38:25.835Z,2.34
2023-01-31T07:40:55.219Z,2.35
2023-01-31T07:43:24.586Z,2.39
2023-01-31T07:45:54.319Z,2.40
2023-01-31T07:48:24.636Z,2.43
2023-01-31T07:50:54.612Z,2.42
2023-01-31T07:53:26.840Z,2.45
2023-01-31T07:55:56.225Z,2.48
2023-01-31T07:58:25.725Z,2.51
2023-01-31T08:01:09.255Z,2.50
2023-01-31T08:03:38.689Z,2.56
2023-01-31T08:06:11.964Z,2.59
2023-01-31T08:08:46.013Z,2.62
2023-01-31T08:11:16.044Z,2.62
2023-01-31T08:13:45.694Z,2.64
2023-01-31T08:16:15.188Z,2.66
2023-01-31T08:18:45.420Z,2.70
2023-01-31T08:21:15.950Z,2.71
2023-01-31T08:23:48.308Z,2.68
2023-01-31T08:26:19.566Z,2.68
2023-01-31T08:28:50.667Z,2.69
2023-01-31T08:31:21.528Z,2.70
2023-01-31T08:33:52.997Z,2.72
2023-01-31T08:36:24.638Z,2.73
2023-01-31T08:38:57.612Z,2.75
2023-01-31T08:41:31.416Z,2.78
2023-01-31T08:44:04.200Z,2.75
2023-01-31T08:46:35.787Z,2.83
2023-01-31T08:49:07.291Z,2.84
2023-01-31T08:51:36.781Z,2.82
2023-01-31T08:54:10.592Z,2.83
2023-01-31T08:56:40.015Z,2.81
2023-01-31T08:59:09.425Z,2.78
2023-01-31T09:01:38.918Z,2.76
2023-01-31T09:04:09.295Z,2.74
2023-01-31T09:06:38.784Z,2.74
2023-01-31T09:09:10.957Z,2.71
2023-01-31T09:11:42.515Z,2.75
2023-01-31T09:14:11.896Z,2.74
2023-01-31T09:16:43.469Z,2.81
2023-01-31T09:19:12.990Z,2.77
2023-01-31T09:21:42.481Z,2.82
2023-01-31T09:24:14.963Z,2.80
2023-01-31T09:26:44.411Z,2.83
2023-01-31T09:29:13.923Z,2.80
2023-01-31T09:31:43.387Z,2.86
2023-01-31T09:34:13.950Z,2.87
2023-01-31T09:36:43.396Z,2.90
2023-01-31T09:39:15.560Z,2.94
2023-01-31T09:41:46.911Z,2.96
2023-01-31T09:44:20.561Z,2.96
2023-01-31T09:46:55.195Z,2.94
2023-01-31T09:49:27.013Z,2.94
2023-01-31T09:51:59.586Z,2.92
2023-01-31T09:54:34.863Z,2.92
2023-01-31T09:57:10.638Z,2.94
2023-01-31T09:59:46.569Z,2.94
2023-01-31T10:02:33.902Z,2.92
2023-01-31T10:05:14.176Z,2.92
2023-01-31T10:07:47.823Z,2.95
2023-01-31T10:10:28.925Z,2.96
2023-01-31T10:13:00.569Z,2.98
2023-01-31T10:15:35.248Z,2.99
2023-01-31T10:18:08.363Z,3.03
2023-01-31T10:20:42.180Z,3.03
2023-01-31T10:23:16.092Z,3.03
2023-01-31T10:25:51.905Z,3.08
2023-01-31T10:28:25.843Z,3.09
2023-01-31T10:30:59.964Z,3.12
2023-01-31T10:33:37.227Z,3.12
2023-01-31T10:36:12.296Z,3.16
2023-01-31T10:38:45.887Z,3.16
2023-01-31T10:41:21.490Z,3.19
2023-01-31T10:43:55.188Z,3.23
2023-01-31T10:46:24.645Z,3.22
2023-01-31T10:48:54.062Z,3.23
2023-01-31T10:51:35.996Z,3.27
2023-01-31T10:54:17.839Z,3.28
2023-01-31T10:56:50.894Z,3.31
2023-01-31T10:59:26.404Z,3.33
2023-01-31T11:01:56.233Z,3.33
2023-01-31T11:04:28.276Z,3.37
2023-01-31T11:06:57.841Z,3.40
2023-01-31T11:09:29.841Z,3.45
2023-01-31T11:12:03.427Z,3.47
2023-01-31T11:14:33.292Z,3.51
2023-01-31T11:17:05.889Z,3.53
2023-01-31T11:19:38.455Z,3.56
2023-01-31T11:22:08.448Z,3.61
2023-01-31T11:24:41.417Z,3.61
2023-01-31T11:27:17.261Z,3.60
2023-01-31T11:29:54.634Z,3.62
2023-01-31T11:32:26.428Z,3.64
2023-01-31T11:35:00.622Z,3.65
2023-01-31T11:37:32.627Z,3.69
2023-01-31T11:40:04.757Z,3.69
2023-01-31T11:42:36.861Z,3.70
2023-01-31T11:45:12.471Z,3.75
2023-01-31T11:47:45.682Z,3.74
2023-01-31T11:50:22.929Z,3.76
2023-01-31T11:52:57.525Z,3.75
2023-01-31T11:55:27.751Z,3.70
2023-01-31T11:58:01.807Z,3.71
2023-01-31T12:00:34.135Z,3.72
2023-01-31T12:03:08.441Z,3.73
2023-01-31T12:05:41.032Z,3.75
2023-01-31T12:08:30.392Z,3.77
2023-01-31T12:11:00.729Z,3.78
2023-01-31T12:13:32.788Z,3.81
2023-01-31T12:16:04.188Z,3.83
2023-01-31T12:18:47.231Z,3.86
2023-01-31T12:21:19.273Z,3.89
2023-01-31T12:23:58.025Z,3.90
2023-01-31T12:26:35.228Z,3.92
2023-01-31T12:29:25.522Z,3.92
2023-01-31T12:32:07.006Z,3.96
2023-01-31T12:35:00.730Z,3.95
2023-01-31T12:37:39.189Z,3.97
2023-01-31T12:40:25.192Z,3.99
2023-01-31T12:42:59.689Z,3.99
2023-01-31T12:45:52.984Z,4.04
2023-01-31T12:48:40.912Z,4.05
2023-01-31T12:51:20.755Z,4.07
2023-01-31T12:53:58.696Z,4.12
2023-01-31T12:56:38.053Z,4.13
2023-01-31T12:59:16.230Z,4.17
2023-01-31T13:01:52.640Z,4.20
2023-01-31T13:04:36.461Z,4.22
2023-01-31T13:07:07.738Z,4.27
2023-01-31T13:12:03.866Z,4.23
2023-01-31T13:14:35.869Z,4.24
2023-01-31T13:17:07.788Z,4.28
2023-01-31T13:19:40.668Z,4.30
2023-01-31T13:22:15.791Z,4.37
2023-01-31T13:24:48.396Z,4.41
2023-01-31T13:27:25.593Z,4.45
2023-01-31T13:30:00.322Z,4.51
2023-01-31T13:32:32.293Z,4.56
2023-01-31T13:35:06.190Z,4.67
2023-01-31T13:37:39.034Z,4.77
2023-01-31T13:40:19.740Z,5.09
2023-01-31T13:42:53.436Z,5.20
2023-01-31T13:45:26.521Z,5.05
2023-01-31T13:48:01.011Z,4.96
2023-01-31T13:50:37.160Z,4.93
2023-01-31T13:53:07.598Z,4.91
2023-01-31T13:55:39.886Z,4.88
2023-01-31T13:58:18.741Z,4.91
2023-01-31T14:00:50.885Z,4.91
2023-01-31T14:03:22.287Z,4.91
2023-01-31T14:06:09.667Z,4.90
2023-01-31T14:08:42.238Z,4.92
2023-01-31T14:11:36.188Z,4.91
2023-01-31T14:14:31.440Z,4.94
2023-01-31T14:17:01.202Z,4.93
2023-01-31T14:20:04.644Z,4.94
2023-01-31T14:22:35.417Z,4.94
2023-01-31T14:25:07.772Z,4.94
2023-01-31T14:27:53.796Z,4.94
2023-01-31T14:30:34.688Z,4.95
2023-01-31T14:33:08.499Z,4.95
2023-01-31T14:35:58.556Z,4.97
2023-01-31T14:38:40.106Z,4.96
2023-01-31T14:41:14.356Z,4.96
2023-01-31T14:43:51.874Z,4.95
2023-01-31T14:46:42.715Z,4.94
2023-01-31T14:49:38.682Z,4.93
2023-01-31T14:52:21.075Z,4.88
2023-01-31T14:55:04.671Z,4.83
2023-01-31T14:57:35.444Z,4.78
2023-01-31T15:00:08.810Z,4.71
2023-01-31T15:02:50.389Z,4.67
2023-01-31T15:05:41.001Z,4.67
2023-01-31T15:08:35.000Z,4.71
2023-01-31T15:11:08.782Z,4.74
2023-01-31T15:13:41.407Z,4.75
2023-01-31T15:16:18.455Z,4.75
2023-01-31T15:18:49.328Z,4.76
2023-01-31T15:21:24.568Z,4.73
2023-01-31T15:23:55.468Z,4.75
2023-01-31T15:26:30.218Z,4.73
2023-01-31T15:29:00.608Z,4.71
2023-01-31T15:31:34.570Z,4.69
2023-01-31T15:34:08.789Z,4.69
2023-01-31T15:36:41.508Z,4.67
2023-01-31T15:39:23.469Z,4.68
2023-01-31T15:41:55.933Z,4.69
2023-01-31T15:44:26.626Z,4.67
2023-01-31T15:46:58.134Z,4.68
2023-01-31T15:49:39.662Z,4.68
2023-01-31T15:52:17.492Z,4.66
2023-01-31T15:54:57.297Z,4.67
2023-01-31T15:57:32.609Z,4.67
2023-01-31T16:00:02.343Z,4.72
2023-01-31T16:02:33.675Z,4.71
2023-01-31T16:05:03.140Z,4.69
2023-01-31T16:07:32.678Z,4.72
2023-01-31T16:10:04.346Z,4.72
2023-01-31T16:12:40.463Z,4.31
2023-01-31T16:15:11.197Z,3.71
2023-01-31T16:17:40.667Z,3.19
2023-01-31T16:20:37.922Z,2.90
2023-01-31T16:23:08.113Z,2.78
2023-01-31T16:25:39.130Z,2.70
2023-01-31T16:28:14.204Z,2.62
2023-01-31T16:30:44.634Z,2.54
2023-01-31T16:33:19.654Z,2.52
2023-01-31T16:35:49.057Z,2.54
2023-01-31T16:38:21.624Z,2.55
2023-01-31T16:40:54.348Z,2.62
2023-01-31T16:43:27.942Z,2.66
2023-01-31T16:45:59.809Z,2.71
2023-01-31T16:48:31.787Z,2.74
2023-01-31T16:51:02.447Z,2.77
2023-01-31T16:53:33.787Z,2.84
2023-01-31T16:56:19.048Z,2.88
2023-01-31T16:58:55.209Z,2.90
2023-01-31T17:01:27.646Z,2.99
2023-01-31T17:04:06.184Z,3.03
2023-01-31T17:06:36.245Z,3.06
2023-01-31T17:09:06.433Z,3.08
2023-01-31T17:11:43.522Z,3.11
2023-01-31T17:14:15.819Z,3.14
2023-01-31T17:16:45.238Z,3.23
2023-01-31T17:19:16.159Z,3.30
2023-01-31T17:21:46.127Z,3.37
2023-01-31T17:24:17.693Z,3.41
2023-01-31T17:26:47.469Z,3.42
2023-01-31T17:29:19.472Z,3.51
2023-01-31T17:31:48.992Z,3.43
2023-01-31T17:34:19.129Z,3.41
2023-01-31T17:36:48.685Z,3.42
2023-01-31T17:39:18.289Z,3.40
2023-01-31T17:41:47.740Z,3.41
2023-01-31T17:44:22.005Z,3.41
2023-01-31T17:46:51.780Z,3.40
2023-01-31T17:49:21.252Z,3.43
2023-01-31T17:51:50.693Z,3.37
2023-01-31T17:54:20.114Z,3.33
2023-01-31T17:56:51.107Z,3.34
2023-01-31T17:59:27.198Z,3.30
2023-01-31T18:01:57.396Z,3.26
2023-01-31T18:04:26.829Z,3.27
2023-01-31T18:06:58.569Z,3.27
2023-01-31T18:09:28.439Z,3.22
2023-01-31T18:11:57.988Z,3.26
2023-01-31T18:14:29.943Z,3.22
2023-01-31T18:16:59.353Z,3.22
2023-01-31T18:19:28.804Z,3.22
2023-01-31T18:21:59.622Z,3.19
2023-01-31T18:24:29.140Z,3.19
2023-01-31T18:26:59.028Z,3.20
2023-01-31T18:29:31.284Z,3.17
2023-01-31T18:32:02.764Z,3.19
2023-01-31T18:34:33.332Z,3.23
2023-01-31T18:37:02.967Z,3.20
2023-01-31T18:39:32.585Z,3.13
2023-01-31T18:42:02.994Z,3.06
2023-01-31T18:44:35.106Z,3.04
2023-01-31T18:47:04.559Z,3.04
2023-01-31T18:49:34.004Z,3.03
2023-01-31T18:52:03.480Z,3.01
2023-01-31T18:54:32.902Z,2.96
2023-01-31T18:57:02.358Z,3.01
2023-01-31T18:59:31.790Z,3.03
2023-01-31T19:02:04.289Z,3.09
2023-01-31T19:04:33.869Z,3.13
2023-01-31T19:07:03.242Z,3.22
2023-01-31T19:09:32.716Z,3.22
2023-01-31T19:12:02.112Z,3.22
2023-01-31T19:14:31.504Z,3.21
2023-01-31T19:17:03.526Z,3.22
2023-01-31T19:19:32.986Z,3.22
2023-01-31T19:22:02.447Z,3.22
2023-01-31T19:24:31.887Z,3.23
2023-01-31T19:27:01.612Z,3.19
2023-01-31T19:29:31.092Z,3.18
2023-01-31T19:32:03.126Z,3.22
2023-01-31T19:34:33.406Z,3.19
2023-01-31T19:37:02.931Z,3.20
2023-01-31T19:39:32.389Z,3.16
2023-01-31T19:42:01.845Z,3.13
2023-01-31T19:44:31.828Z,3.12
2023-01-31T19:47:03.819Z,3.14
2023-01-31T19:49:33.313Z,3.13
2023-01-31T19:52:02.670Z,3.13
2023-01-31T19:54:32.033Z,3.17
2023-01-31T19:57:01.445Z,3.22
2023-01-31T19:59:30.903Z,3.17
2023-01-31T20:02:02.991Z,3.21
2023-01-31T20:04:32.823Z,3.23
2023-01-31T20:07:02.245Z,3.23
2023-01-31T20:09:31.655Z,3.20
2023-01-31T20:12:01.091Z,3.22
2023-01-31T20:14:30.828Z,3.21
2023-01-31T20:17:02.834Z,3.18
2023-01-31T20:19:32.236Z,3.18
2023-01-31T20:22:01.923Z,3.19
2023-01-31T20:24:31.439Z,3.17
2023-01-31T20:27:01.388Z,3.15
2023-01-31T20:29:31.042Z,3.13
2023-01-31T20:32:03.089Z,3.10
2023-01-31T20:34:34.365Z,3.05
2023-01-31T20:37:03.858Z,3.02
2023-01-31T20:39:33.243Z,2.99
2023-01-31T20:42:05.377Z,2.96
2023-01-31T20:44:34.758Z,2.97
2023-01-31T20:47:06.898Z,2.95
2023-01-31T20:49:36.385Z,3.03
2023-01-31T20:52:05.869Z,3.04
2023-01-31T20:54:35.387Z,3.06
2023-01-31T20:57:04.816Z,3.06
2023-01-31T20:59:34.225Z,3.10
2023-01-31T21:02:06.278Z,3.12
2023-01-31T21:04:35.666Z,3.12
2023-01-31T21:07:05.267Z,3.10
2023-01-31T21:09:34.719Z,3.09
2023-01-31T21:12:04.184Z,3.14
2023-01-31T21:14:33.550Z,3.09
2023-01-31T21:17:03.046Z,3.05
2023-01-31T21:19:35.967Z,3.04
2023-01-31T21:22:05.378Z,3.02
2023-01-31T21:24:34.809Z,3.04
2023-01-31T21:27:04.236Z,3.04
2023-01-31T21:29:33.718Z,2.95
2023-01-31T21:32:03.178Z,2.78
2023-01-31T21:34:35.215Z,2.66
2023-01-31T21:37:04.637Z,2.57
2023-01-31T21:39:34.689Z,2.49
2023-01-31T21:42:19.629Z,2.46
2023-01-31T21:44:50.217Z,2.43
2023-01-31T21:47:19.856Z,2.44
2023-01-31T21:49:51.838Z,2.59
2023-01-31T21:52:21.328Z,2.65
2023-01-31T21:54:50.733Z,2.68
2023-01-31T21:57:20.126Z,2.68
2023-01-31T21:59:49.566Z,2.70
2023-01-31T22:02:19.041Z,2.76
2023-01-31T22:04:51.085Z,2.78
2023-01-31T22:07:20.512Z,2.80
2023-01-31T22:09:49.938Z,2.81
2023-01-31T22:12:19.439Z,2.76
2023-01-31T22:14:48.803Z,2.82
2023-01-31T22:17:18.213Z,2.84
2023-01-31T22:19:47.639Z,2.90
2023-01-31T22:22:19.671Z,2.90
2023-01-31T22:24:49.039Z,2.94
2023-01-31T22:27:18.464Z,2.82
2023-01-31T22:29:47.921Z,2.65
2023-01-31T22:32:17.339Z,2.55
2023-01-31T22:34:46.707Z,2.50
2023-01-31T22:37:18.710Z,2.42
2023-01-31T22:39:48.172Z,2.36
2023-01-31T22:42:17.574Z,2.32
2023-01-31T22:44:46.981Z,2.36
2023-01-31T22:47:16.554Z,2.38
2023-01-31T22:49:45.957Z,2.39
2023-01-31T22:52:15.377Z,2.45
2023-01-31T22:54:47.399Z,2.51
2023-01-31T22:57:16.777Z,2.60
2023-01-31T22:59:46.228Z,2.64
2023-01-31T23:02:15.711Z,2.73
2023-01-31T23:04:45.127Z,2.74
2023-01-31T23:07:15.021Z,2.79
2023-01-31T23:09:47.121Z,2.77
2023-01-31T23:12:16.525Z,2.85
2023-01-31T23:14:46.061Z,2.83
2023-01-31T23:17:27.970Z,2.80
2023-01-31T23:19:57.482Z,2.79
2023-01-31T23:22:26.910Z,2.75
2023-01-31T23:24:58.935Z,2.74
2023-01-31T23:27:28.403Z,2.77
2023-01-31T23:29:57.806Z,2.82
2023-01-31T23:32:27.535Z,2.78
2023-01-31T23:34:57.450Z,2.82
2023-01-31T23:37:27.255Z,2.84
2023-01-31T23:39:59.328Z,2.89
2023-01-31T23:42:29.144Z,2.88
2023-01-31T23:44:58.530Z,2.93
2023-01-31T23:47:28.053Z,2.98
2023-01-31T23:49:57.471Z,2.94
2023-01-31T23:52:26.842Z,2.82
2023-01-31T23:54:58.857Z,2.49
2023-01-31T23:57:28.365Z,2.33
2023-01-31T23:59:57.790Z,2.27
